Time;durP1;ratioP1;P1;durP2;ratioP2;P2;SDS_P1;SDS_P2;PMS_P1;PMS_P2;Temp;Humidity;BMP_temperature;BMP_pressure;BME280_temperature;BME280_humidity;BME280_pressure;Samples;Min_cycle;Max_cycle;Signal;HPM_P1;HPM_P2
2023/04/13 00:02:09;;;;;;;1.90;1.80;;;;;9.20;95150.00;;;;8380609;28;20219;-72
2023/04/13 00:06:19;;;;;;;2.17;2.00;;;;;9.20;95153.00;;;;8382696;28;20200;-71
2023/04/13 00:10:25;;;;;;;2.20;1.60;;;;;9.20;95155.00;;;;8380508;28;20231;-72
2023/04/13 00:14:32;;;;;;;1.38;1.38;;;;;9.10;95143.00;;;;8381954;28;20250;-73
2023/04/13 00:18:35;;;;;;;1.83;1.37;;;;;8.90;95147.00;;;;8379279;28;20282;-72
2023/04/13 00:22:38;;;;;;;1.10;1.10;;;;;8.70;95136.00;;;;8382234;28;20200;-71
2023/04/13 00:26:43;;;;;;;1.57;1.10;;;;;8.50;95136.00;;;;8387359;28;20573;-72
2023/04/13 00:30:46;;;;;;;1.00;1.00;;;;;8.40;95121.00;;;;8389373;28;20198;-72
2023/04/13 00:34:50;;;;;;;0.83;0.83;;;;;8.20;95121.00;;;;8389364;28;20249;-73
2023/04/13 00:38:56;;;;;;;0.90;0.90;;;;;8.20;95128.00;;;;8378712;28;20248;-71
2023/04/13 00:43:01;;;;;;;1.83;1.00;;;;;8.20;95132.00;;;;8384709;28;20658;-73
2023/04/13 00:47:04;;;;;;;0.90;0.90;;;;;8.30;95130.00;;;;8383233;28;20207;-72
2023/04/13 00:51:17;;;;;;;1.30;1.20;;;;;8.20;95125.00;;;;8398748;28;20207;-73
2023/04/13 00:55:29;;;;;;;0.80;0.80;;;;;8.20;95127.00;;;;8393149;28;20654;-72
2023/04/13 00:59:37;;;;;;;0.90;0.90;;;;;8.20;95127.00;;;;8390090;28;20256;-73
2023/04/13 01:03:41;;;;;;;1.00;1.00;;;;;8.20;95116.00;;;;8373153;28;20332;-72
2023/04/13 01:07:54;;;;;;;0.90;0.90;;;;;8.20;95132.00;;;;8384637;28;20207;-73
2023/04/13 01:12:03;;;;;;;1.23;1.10;;;;;8.10;95139.00;;;;8387450;28;20247;-72
2023/04/13 01:16:18;;;;;;;1.13;1.03;;;;;8.10;95144.00;;;;8386545;28;20192;-72
2023/04/13 01:20:24;;;;;;;1.13;1.00;;;;;8.00;95156.00;;;;8387502;28;20301;-72
2023/04/13 01:24:37;;;;;;;0.90;0.90;;;;;8.00;95140.00;;;;8381958;28;20196;-71
2023/04/13 01:28:45;;;;;;;3.83;1.10;;;;;8.00;95138.00;;;;8379173;28;20291;-73
2023/04/13 01:32:51;;;;;;;1.23;1.03;;;;;8.00;95143.00;;;;8384967;28;20201;-72
2023/04/13 01:36:54;;;;;;;0.87;0.87;;;;;7.90;95144.00;;;;8382560;28;20234;-72
2023/04/13 01:40:58;;;;;;;1.13;1.00;;;;;7.90;95152.00;;;;8390015;28;20232;-73
2023/04/13 01:45:09;;;;;;;0.93;0.93;;;;;7.90;95155.00;;;;8381625;28;20204;-72
2023/04/13 01:49:17;;;;;;;1.50;0.90;;;;;7.90;95149.00;;;;8389705;28;20209;-73
2023/04/13 01:53:28;;;;;;;0.80;0.80;;;;;7.90;95168.00;;;;8383516;28;20775;-72
2023/04/13 01:57:31;;;;;;;1.77;1.03;;;;;7.90;95187.00;;;;8383242;28;20291;-72
2023/04/13 02:01:37;;;;;;;1.10;1.10;;;;;7.90;95192.00;;;;8386147;28;20263;-72
2023/04/13 02:05:40;;;;;;;1.00;1.00;;;;;7.90;95184.00;;;;8366800;28;20275;-71
2023/04/13 02:09:44;;;;;;;0.90;0.90;;;;;7.90;95192.00;;;;8381077;28;20288;-72
2023/04/13 02:13:47;;;;;;;1.00;1.00;;;;;7.90;95177.00;;;;8382690;28;20276;-72
2023/04/13 02:17:54;;;;;;;1.33;1.10;;;;;7.90;95167.00;;;;8385461;28;20184;-73
2023/04/13 02:21:57;;;;;;;2.43;1.10;;;;;7.90;95160.00;;;;8389015;28;20242;-72
2023/04/13 02:26:01;;;;;;;2.87;1.00;;;;;7.90;95162.00;;;;8384763;28;20205;-72
2023/04/13 02:30:06;;;;;;;1.10;1.10;;;;;7.80;95169.00;;;;8380284;28;20224;-72
2023/04/13 02:34:12;;;;;;;0.90;0.90;;;;;7.80;95164.00;;;;8386513;28;20554;-72
2023/04/13 02:38:20;;;;;;;1.00;1.00;;;;;7.70;95170.00;;;;8381875;28;20196;-72
2023/04/13 02:42:23;;;;;;;1.30;0.90;;;;;7.70;95165.00;;;;8383330;28;20224;-71
2023/04/13 02:46:29;;;;;;;1.00;1.00;;;;;7.70;95155.00;;;;8384282;28;20203;-72
2023/04/13 02:50:37;;;;;;;1.10;1.10;;;;;7.70;95158.00;;;;8379432;28;20206;-73
2023/04/13 02:54:42;;;;;;;1.20;1.10;;;;;7.60;95168.00;;;;8383178;28;20223;-72
2023/04/13 02:58:46;;;;;;;0.90;0.90;;;;;7.60;95171.00;;;;8381715;28;20255;-73
2023/04/13 03:02:53;;;;;;;0.90;0.90;;;;;7.60;95189.00;;;;8367851;22;20294;-73
2023/04/13 03:06:58;;;;;;;0.93;0.93;;;;;7.50;95189.00;;;;8342056;28;20193;-72
2023/04/13 03:11:01;;;;;;;1.47;1.47;;;;;7.60;95181.00;;;;8345705;28;20199;-72
2023/04/13 03:15:10;;;;;;;1.10;1.10;;;;;7.50;95194.00;;;;8337925;28;20201;-73
2023/04/13 03:19:16;;;;;;;1.50;1.40;;;;;7.50;95207.00;;;;8330028;28;20662;-73
2023/04/13 03:23:22;;;;;;;1.03;1.03;;;;;7.50;95201.00;;;;8344586;28;20641;-75
2023/04/13 03:27:25;;;;;;;1.60;1.20;;;;;7.50;95216.00;;;;8344830;28;20196;-75
2023/04/13 03:31:30;;;;;;;1.37;1.27;;;;;7.50;95216.00;;;;8343310;28;20208;-74
2023/04/13 03:35:40;;;;;;;1.20;1.20;;;;;7.40;95221.00;;;;8337135;28;20237;-74
2023/04/13 03:39:46;;;;;;;1.17;1.17;;;;;7.40;95219.00;;;;8343677;28;20249;-74
2023/04/13 03:43:50;;;;;;;2.60;1.20;;;;;7.40;95218.00;;;;8345510;28;20245;-74
2023/04/13 03:47:53;;;;;;;1.30;1.20;;;;;7.40;95222.00;;;;8342440;28;20224;-74
2023/04/13 03:51:57;;;;;;;1.40;1.30;;;;;7.40;95222.00;;;;8330658;28;20254;-74
2023/04/13 03:56:01;;;;;;;1.20;1.10;;;;;7.40;95231.00;;;;8347914;28;20832;-73
2023/04/13 04:00:12;;;;;;;2.83;1.17;;;;;7.40;95243.00;;;;8339319;28;20253;-74
2023/04/13 04:04:17;;;;;;;1.57;1.47;;;;;7.40;95226.00;;;;8316217;28;20237;-75
2023/04/13 04:08:26;;;;;;;1.53;1.30;;;;;7.40;95227.00;;;;8314337;28;20250;-72
2023/04/13 04:12:32;;;;;;;1.10;1.10;;;;;7.40;95221.00;;;;8305136;28;20289;-74
2023/04/13 04:16:35;;;;;;;1.17;1.17;;;;;7.40;95217.00;;;;8318963;28;20204;-74
2023/04/13 04:20:43;;;;;;;1.20;1.20;;;;;7.40;95216.00;;;;8320608;28;20225;-73
2023/04/13 04:24:46;;;;;;;1.17;1.17;;;;;7.40;95215.00;;;;8318978;28;20194;-74
2023/04/13 04:29:00;;;;;;;1.10;1.10;;;;;7.40;95215.00;;;;8319778;28;20236;-75
2023/04/13 04:33:09;;;;;;;1.53;1.20;;;;;7.40;95213.00;;;;8308881;28;20202;-74
2023/04/13 04:37:21;;;;;;;1.20;1.20;;;;;7.40;95208.00;;;;8317960;28;20228;-74
2023/04/13 04:41:29;;;;;;;2.47;1.30;;;;;7.30;95213.00;;;;8321598;28;20217;-74
2023/04/13 04:45:35;;;;;;;1.10;1.10;;;;;7.30;95214.00;;;;8320233;28;20194;-74
2023/04/13 04:49:38;;;;;;;1.20;1.20;;;;;7.30;95231.00;;;;8316727;28;20209;-73
2023/04/13 04:53:44;;;;;;;2.70;1.20;;;;;7.30;95226.00;;;;8320028;28;20228;-75
2023/04/13 04:57:49;;;;;;;2.10;1.20;;;;;7.30;95238.00;;;;8318724;28;20198;-74
2023/04/13 05:01:55;;;;;;;1.33;1.33;;;;;7.30;95245.00;;;;8303998;28;20229;-76
2023/04/13 05:05:58;;;;;;;2.00;1.30;;;;;7.30;95235.00;;;;8316229;28;20240;-75
2023/04/13 05:10:07;;;;;;;1.50;1.10;;;;;7.30;95241.00;;;;8320079;28;20201;-75
2023/04/13 05:14:12;;;;;;;1.40;1.40;;;;;7.30;95247.00;;;;8309752;28;20194;-73
2023/04/13 05:18:18;;;;;;;1.20;1.20;;;;;7.30;95241.00;;;;8311684;28;20253;-74
2023/04/13 05:22:21;;;;;;;1.50;1.40;;;;;7.40;95234.00;;;;8314495;28;20225;-74
2023/04/13 05:26:25;;;;;;;1.10;1.10;;;;;7.40;95243.00;;;;8317896;28;20228;-74
2023/04/13 05:30:31;;;;;;;1.60;1.50;;;;;7.40;95247.00;;;;8318946;28;20202;-73
2023/04/13 05:34:37;;;;;;;1.60;1.50;;;;;7.40;95256.00;;;;8317139;28;20210;-74
2023/04/13 05:38:41;;;;;;;1.60;1.40;;;;;7.50;95259.00;;;;8318032;28;20198;-74
2023/04/13 05:42:46;;;;;;;3.00;1.70;;;;;7.50;95248.00;;;;8303606;28;20225;-74
2023/04/13 05:46:50;;;;;;;1.47;1.40;;;;;7.50;95249.00;;;;8315973;28;20208;-73
2023/04/13 05:51:00;;;;;;;1.80;1.70;;;;;7.50;95236.00;;;;8318770;28;20208;-73
2023/04/13 05:55:05;;;;;;;2.23;1.97;;;;;7.50;95247.00;;;;8316735;28;20205;-75
2023/04/13 05:59:10;;;;;;;1.83;1.73;;;;;7.60;95254.00;;;;8316138;28;20213;-73
2023/04/13 06:03:15;;;;;;;1.73;1.63;;;;;7.60;95272.00;;;;8314857;28;20591;-75
2023/04/13 06:07:20;;;;;;;1.60;1.50;;;;;7.70;95272.00;;;;8317238;28;20241;-75
2023/04/13 06:11:25;;;;;;;2.37;1.73;;;;;7.70;95270.00;;;;8316570;28;20208;-77
2023/04/13 06:15:28;;;;;;;2.43;1.50;;;;;7.70;95281.00;;;;8315872;28;20259;-73
2023/04/13 06:19:30;;;;;;;1.23;1.23;;;;;7.70;95270.00;;;;8316122;28;20237;-74
2023/04/13 06:23:36;;;;;;;3.03;1.60;;;;;7.80;95279.00;;;;8312250;28;20261;-73
2023/04/13 06:27:42;;;;;;;1.97;1.43;;;;;7.80;95272.00;;;;8315334;28;20208;-75
2023/04/13 06:31:47;;;;;;;1.97;1.70;;;;;7.80;95273.00;;;;8311129;28;20196;-74
2023/04/13 06:35:51;;;;;;;1.73;1.57;;;;;8.00;95271.00;;;;8315986;28;20205;-73
2023/04/13 06:39:56;;;;;;;1.60;1.50;;;;;8.10;95274.00;;;;8315326;28;20201;-73
2023/04/13 06:44:04;;;;;;;1.50;1.40;;;;;8.30;95287.00;;;;8315475;28;20198;-74
2023/04/13 06:48:07;;;;;;;1.50;1.40;;;;;8.50;95292.00;;;;8314295;28;20229;-74
2023/04/13 06:52:10;;;;;;;1.50;1.40;;;;;8.70;95293.00;;;;8313799;28;20207;-74
2023/04/13 06:56:16;;;;;;;2.03;1.60;;;;;8.90;95304.00;;;;8310421;28;20233;-74
2023/04/13 07:00:24;;;;;;;1.60;1.50;;;;;9.10;95306.00;;;;8310258;28;20252;-74
2023/04/13 07:04:32;;;;;;;1.43;1.30;;;;;9.40;95314.00;;;;8309539;28;20257;-73
2023/04/13 07:08:36;;;;;;;1.30;1.30;;;;;9.70;95301.00;;;;8314296;28;20247;-74
2023/04/13 07:12:40;;;;;;;2.30;1.33;;;;;10.00;95310.00;;;;8311663;28;20233;-76
2023/04/13 07:16:45;;;;;;;1.67;1.57;;;;;10.10;95307.00;;;;8314080;28;20288;-75
2023/04/13 07:20:48;;;;;;;2.17;1.20;;;;;10.00;95313.00;;;;8311435;28;20641;-76
2023/04/13 07:24:56;;;;;;;1.60;1.40;;;;;9.80;95312.00;;;;8313451;28;20669;-73
2023/04/13 07:29:00;;;;;;;1.48;1.38;;;;;9.90;95318.00;;;;8311726;28;21090;-73
2023/04/13 07:33:06;;;;;;;1.33;1.00;;;;;10.00;95306.00;;;;8294407;28;20194;-73
2023/04/13 07:37:09;;;;;;;1.47;1.20;;;;;10.10;95318.00;;;;8301292;28;20197;-72
2023/04/13 07:41:12;;;;;;;2.83;1.50;;;;;10.20;95319.00;;;;8313125;28;20717;-72
2023/04/13 07:45:16;;;;;;;1.30;1.30;;;;;10.40;95313.00;;;;8313937;28;20217;-74
2023/04/13 07:49:23;;;;;;;1.83;1.20;;;;;10.70;95321.00;;;;8313971;28;20240;-75
2023/04/13 07:53:30;;;;;;;1.42;1.20;;;;;11.10;95312.00;;;;8295228;28;20367;-77
2023/04/13 07:57:33;;;;;;;3.60;1.50;;;;;11.20;95313.00;;;;8309036;28;20252;-70
2023/04/13 08:01:38;;;;;;;1.60;1.50;;;;;11.60;95314.00;;;;8311836;28;20559;-71
2023/04/13 08:05:40;;;;;;;2.78;1.80;;;;;12.00;95319.00;;;;8313814;28;20209;-74
2023/04/13 08:14:04;;;;;;;1.80;1.55;;;;;12.00;95314.00;;;;8312753;28;20231;-73
2023/04/13 08:18:08;;;;;;;1.80;1.50;;;;;12.20;95319.00;;;;8314267;28;20200;-70
2023/04/13 08:22:11;;;;;;;1.15;1.15;;;;;12.00;95310.00;;;;8312193;28;20319;-73
2023/04/13 08:26:18;;;;;;;1.52;1.42;;;;;11.90;95326.00;;;;8311642;28;20197;-75
2023/04/13 08:34:42;;;;;;;3.15;1.55;;;;;12.00;95318.00;;;;8306807;28;20222;-76
2023/04/13 08:38:45;;;;;;;1.20;1.10;;;;;12.60;95320.00;;;;8310979;28;20202;-75
2023/04/13 08:42:48;;;;;;;1.25;1.15;;;;;13.00;95307.00;;;;8314840;28;20259;-78
2023/04/13 08:46:52;;;;;;;1.55;1.40;;;;;12.90;95307.00;;;;8313006;28;20622;-75
2023/04/13 08:50:58;;;;;;;2.05;1.40;;;;;13.20;95295.00;;;;8318277;28;20211;-74
2023/04/13 08:55:02;;;;;;;1.60;1.10;;;;;13.60;95290.00;;;;8319062;28;20224;-76
2023/04/13 08:59:14;;;;;;;2.20;1.08;;;;;14.00;95297.00;;;;8316750;28;20209;-73
2023/04/13 09:03:29;;;;;;;2.47;1.50;;;;;14.20;95315.00;;;;8315335;28;20240;-71
2023/04/13 09:07:38;;;;;;;1.40;1.30;;;;;14.70;95308.00;;;;8316683;28;20207;-71
2023/04/13 09:11:45;;;;;;;1.40;1.30;;;;;15.10;95299.00;;;;8315126;28;20202;-74
2023/04/13 09:15:55;;;;;;;1.10;1.10;;;;;15.70;95296.00;;;;8313206;28;20194;-77
2023/04/13 09:20:11;;;;;;;2.13;1.30;;;;;15.50;95322.00;;;;8315857;28;20295;-75
2023/04/13 09:24:15;;;;;;;1.80;1.20;;;;;15.60;95311.00;;;;8311600;28;20278;-75
2023/04/13 09:28:25;;;;;;;1.23;1.13;;;;;15.20;95307.00;;;;8301394;28;20228;-78
2023/04/13 09:32:28;;;;;;;1.73;1.10;;;;;15.10;95304.00;;;;8316287;28;20197;-74
2023/04/13 09:36:33;;;;;;;1.90;1.40;;;;;15.70;95312.00;;;;8317688;28;20194;-73
2023/04/13 09:40:49;;;;;;;1.52;1.30;;;;;16.20;95306.00;;;;8306528;28;20198;-76
2023/04/13 09:44:56;;;;;;;2.88;1.70;;;;;16.70;95313.00;;;;8314159;28;20228;-76
2023/04/13 09:49:04;;;;;;;2.70;1.23;;;;;16.80;95308.00;;;;8312510;28;20667;-76
2023/04/13 09:53:10;;;;;;;2.88;1.40;;;;;17.10;95315.00;;;;8316115;28;20205;-73
2023/04/13 09:57:23;;;;;;;1.73;1.17;;;;;16.60;95315.00;;;;8317816;28;20224;-74
2023/04/13 10:01:27;;;;;;;1.33;1.23;;;;;15.90;95319.00;;;;8315294;28;20229;-75
2023/04/13 10:05:35;;;;;;;1.52;1.42;;;;;15.70;95315.00;;;;8317849;28;20198;-78
2023/04/13 10:09:59;;;;;;;3.67;1.40;;;;;15.20;95323.00;;;;8306484;28;20196;-80
2023/04/13 10:14:08;;;;;;;1.67;1.30;;;;;14.90;95309.00;;;;8312759;28;20666;-77
2023/04/13 10:18:24;;;;;;;3.60;1.27;;;;;14.90;95313.00;;;;8311954;28;20198;-76
2023/04/13 10:22:31;;;;;;;1.40;1.30;;;;;14.90;95316.00;;;;8311455;28;20232;-79
2023/04/13 10:26:38;;;;;;;2.65;1.30;;;;;15.10;95311.00;;;;8314428;28;20225;-75
2023/04/13 10:30:52;;;;;;;2.90;1.40;;;;;15.00;95310.00;;;;8316070;28;20209;-74
2023/04/13 10:34:55;;;;;;;4.43;1.70;;;;;15.10;95310.00;;;;8309742;28;20281;-75
2023/04/13 10:38:58;;;;;;;5.45;1.65;;;;;15.60;95303.00;;;;8312444;28;20206;-78
2023/04/13 10:43:05;;;;;;;1.35;1.25;;;;;16.30;95305.00;;;;8308493;28;20229;-75
2023/04/13 10:47:13;;;;;;;3.17;1.60;;;;;16.20;95304.00;;;;8315514;28;20205;-74
2023/04/13 10:51:16;;;;;;;3.38;1.40;;;;;15.80;95299.00;;;;8314229;28;20198;-79
2023/04/13 10:55:23;;;;;;;7.22;1.88;;;;;15.30;95294.00;;;;8315504;28;20197;-78
2023/04/13 10:59:42;;;;;;;7.30;2.00;;;;;15.50;95293.00;;;;8313001;28;20262;-76
2023/04/13 11:04:05;;;;;;;3.88;1.70;;;;;16.00;95283.00;;;;8311890;28;20243;-74
2023/04/13 11:08:19;;;;;;;4.97;1.80;;;;;16.40;95299.00;;;;8312148;28;20197;-78
2023/04/13 11:12:29;;;;;;;3.70;1.70;;;;;16.40;95281.00;;;;8297731;28;20544;-77
2023/04/13 11:16:43;;;;;;;7.50;1.85;;;;;16.00;95284.00;;;;8313958;28;20651;-78
2023/04/13 11:20:49;;;;;;;3.78;1.67;;;;;15.80;95284.00;;;;8311451;28;20197;-77
2023/04/13 11:24:52;;;;;;;2.60;2.10;;;;;16.20;95283.00;;;;8311984;28;20233;-80
2023/04/13 11:28:58;;;;;;;4.68;1.40;;;;;16.10;95280.00;;;;8312600;28;20316;-79
2023/04/13 11:33:02;;;;;;;4.38;1.60;;;;;15.70;95293.00;;;;8312281;28;20615;-81
2023/04/13 11:37:07;;;;;;;3.85;1.40;;;;;15.60;95293.00;;;;8310868;28;20201;-71
2023/04/13 11:41:11;;;;;;;2.08;1.30;;;;;15.20;95293.00;;;;8312675;28;20212;-75
2023/04/13 11:45:22;;;;;;;3.22;1.35;;;;;15.00;95288.00;;;;8308530;28;20225;-77
2023/04/13 11:49:28;;;;;;;4.20;1.30;;;;;15.00;95286.00;;;;8308549;28;20544;-72
2023/04/13 11:53:37;;;;;;;4.03;1.52;;;;;14.90;95297.00;;;;8310011;28;20201;-75
2023/04/13 11:57:40;;;;;;;2.22;1.35;;;;;14.80;95282.00;;;;8312930;28;20676;-75
2023/04/13 12:01:50;;;;;;;2.78;2.20;;;;;14.60;95293.00;;;;8304821;28;20271;-74
2023/04/13 12:06:07;;;;;;;6.45;1.92;;;;;14.30;95279.00;;;;8311466;28;20284;-84
2023/04/13 12:10:22;;;;;;;2.78;1.52;;;;;14.30;95291.00;;;;8311847;28;20236;-78
2023/04/13 12:14:31;;;;;;;4.40;1.45;;;;;14.50;95291.00;;;;8309340;28;20284;-78
2023/04/13 12:18:55;;;;;;;5.18;1.70;;;;;14.60;95298.00;;;;8298700;28;20693;-78
2023/04/13 12:23:03;;;;;;;4.25;1.55;;;;;14.50;95297.00;;;;8309204;28;20222;-76
2023/04/13 12:27:27;;;;;;;7.47;1.65;;;;;14.60;95305.00;;;;8315977;28;20771;-78
2023/04/13 12:31:34;;;;;;;3.58;1.73;;;;;14.60;95300.00;;;;8320354;28;20288;-73
2023/04/13 12:35:40;;;;;;;3.63;1.60;;;;;14.40;95297.00;;;;8316253;28;20201;-77
2023/04/13 12:39:45;;;;;;;5.50;1.60;;;;;14.40;95291.00;;;;8318587;28;20197;-78
2023/04/13 12:43:54;;;;;;;2.70;1.50;;;;;14.30;95295.00;;;;8320806;28;20221;-73
2023/04/13 12:47:57;;;;;;;2.35;1.58;;;;;14.20;95298.00;;;;8313135;28;20269;-77
2023/04/13 12:52:01;;;;;;;4.45;1.30;;;;;14.40;95299.00;;;;8314767;28;21281;-80
2023/04/13 12:56:06;;;;;;;5.38;1.83;;;;;14.50;95303.00;;;;8318595;28;20206;-76
2023/04/13 13:00:14;;;;;;;6.57;1.63;;;;;14.50;95312.00;;;;8317236;28;20201;-79
2023/04/13 13:04:17;;;;;;;7.95;1.90;;;;;14.50;95304.00;;;;8313803;28;20245;-76
2023/04/13 13:08:21;;;;;;;3.28;1.38;;;;;14.50;95307.00;;;;8313941;28;20210;-73
2023/04/13 13:12:28;;;;;;;3.90;1.52;;;;;14.30;95305.00;;;;8315033;28;20659;-77
2023/04/13 13:16:38;;;;;;;6.60;2.15;;;;;14.30;95311.00;;;;8313917;28;20292;-80
2023/04/13 13:20:44;;;;;;;3.55;1.58;;;;;14.40;95313.00;;;;8316028;28;20292;-76
2023/04/13 13:24:49;;;;;;;2.83;1.52;;;;;14.40;95329.00;;;;8317011;28;20239;-77
2023/04/13 13:28:57;;;;;;;2.45;1.30;;;;;14.40;95309.00;;;;8317764;28;20201;-84
2023/04/13 13:33:05;;;;;;;3.05;1.50;;;;;14.50;95312.00;;;;8317744;28;20714;-78
2023/04/13 13:37:09;;;;;;;3.40;1.45;;;;;14.50;95310.00;;;;8315861;28;20201;-84
2023/04/13 13:41:14;;;;;;;4.88;1.65;;;;;14.60;95315.00;;;;8317735;28;20610;-80
2023/04/13 13:45:21;;;;;;;4.13;1.60;;;;;14.30;95323.00;;;;8316121;28;20239;-79
2023/04/13 13:49:27;;;;;;;1.70;1.60;;;;;14.30;95333.00;;;;8312757;28;20252;-75
2023/04/13 13:53:33;;;;;;;2.60;1.60;;;;;14.10;95330.00;;;;8317234;28;20268;-75
2023/04/13 13:57:39;;;;;;;4.63;1.63;;;;;13.90;95337.00;;;;8316147;28;20213;-74
2023/04/13 14:01:42;;;;;;;5.30;1.73;;;;;13.70;95332.00;;;;8315749;28;20224;-79
2023/04/13 14:05:51;;;;;;;3.70;2.10;;;;;13.40;95324.00;;;;8310649;28;20228;-74
2023/04/13 14:09:57;;;;;;;38.65;17.67;;;;;13.20;95314.00;;;;8315785;28;20201;-77
2023/04/13 14:14:01;;;;;;;84.13;43.45;;;;;13.10;95311.00;;;;8312792;28;20201;-78
2023/04/13 14:18:22;;;;;;;31.83;15.00;;;;;13.20;95314.00;;;;8313974;28;20197;-75
2023/04/13 14:22:26;;;;;;;2.72;1.77;;;;;13.00;95320.00;;;;8314700;28;20212;-79
2023/04/13 14:26:30;;;;;;;6.82;1.88;;;;;12.90;95316.00;;;;8319593;28;20231;-76
2023/04/13 14:30:33;;;;;;;3.90;1.50;;;;;12.70;95311.00;;;;8315216;28;20677;-81
2023/04/13 14:34:36;;;;;;;4.38;1.48;;;;;12.60;95319.00;;;;8315063;28;20297;-77
2023/04/13 14:38:43;;;;;;;4.10;1.67;;;;;12.60;95312.00;;;;8305735;28;20195;-82
2023/04/13 14:42:47;;;;;;;3.10;1.50;;;;;12.60;95320.00;;;;8315670;28;20200;-80
2023/04/13 14:46:50;;;;;;;2.70;1.35;;;;;12.70;95318.00;;;;8315043;28;20231;-74
2023/04/13 14:50:54;;;;;;;5.28;1.40;;;;;12.70;95311.00;;;;8311207;28;20203;-80
2023/04/13 14:54:59;;;;;;;1.55;1.35;;;;;12.70;95299.00;;;;8311001;28;20203;-80
2023/04/13 14:59:02;;;;;;;2.08;1.75;;;;;12.70;95295.00;;;;8313938;28;20211;-78
2023/04/13 15:03:06;;;;;;;5.72;5.00;;;;;12.70;95302.00;;;;8310011;28;20709;-82
2023/04/13 15:07:10;;;;;;;3.67;1.50;;;;;12.70;95300.00;;;;8319905;28;20201;-77
2023/04/13 15:11:15;;;;;;;4.68;1.60;;;;;12.70;95301.00;;;;8331975;28;20209;-79
2023/04/13 15:15:18;;;;;;;5.10;1.85;;;;;12.60;95307.00;;;;8324535;28;20262;-77
2023/04/13 15:19:28;;;;;;;3.33;1.73;;;;;12.50;95312.00;;;;8323339;28;20258;-79
2023/04/13 15:23:35;;;;;;;3.38;1.58;;;;;12.50;95325.00;;;;8316681;28;20356;-79
2023/04/13 15:27:41;;;;;;;4.35;1.88;;;;;12.50;95320.00;;;;8318443;28;20276;-77
2023/04/13 15:31:46;;;;;;;2.95;1.88;;;;;12.60;95328.00;;;;8317563;28;20193;-80
2023/04/13 15:35:52;;;;;;;2.22;1.48;;;;;12.70;95325.00;;;;8314730;28;20205;-76
2023/04/13 15:39:55;;;;;;;5.75;1.92;;;;;12.90;95307.00;;;;8314033;28;20197;-80
2023/04/13 15:44:07;;;;;;;4.25;1.60;;;;;13.00;95299.00;;;;8312814;28;20228;-78
2023/04/13 15:48:11;;;;;;;5.72;1.50;;;;;13.00;95294.00;;;;8297927;28;20197;-82
2023/04/13 15:52:17;;;;;;;2.92;1.48;;;;;13.00;95295.00;;;;8299124;28;20303;-81
2023/04/13 15:56:29;;;;;;;2.58;1.80;;;;;13.10;95309.00;;;;8292799;28;20689;-78
2023/04/13 16:00:34;;;;;;;6.50;1.80;;;;;13.10;95319.00;;;;8325521;28;20953;-79
2023/04/13 16:04:39;;;;;;;2.35;1.60;;;;;13.10;95316.00;;;;8326739;28;20236;-78
2023/04/13 16:08:43;;;;;;;7.05;2.00;;;;;13.00;95323.00;;;;8327870;28;20198;-79
2023/04/13 16:12:48;;;;;;;2.38;1.50;;;;;13.00;95331.00;;;;8309651;28;20200;-75
2023/04/13 16:16:58;;;;;;;4.82;1.80;;;;;12.90;95347.00;;;;8324535;28;20203;-77
2023/04/13 16:21:03;;;;;;;6.25;1.98;;;;;12.80;95359.00;;;;8319838;28;20211;-78
2023/04/13 16:25:09;;;;;;;4.68;1.48;;;;;12.80;95357.00;;;;8323570;28;20229;-80
2023/04/13 16:29:12;;;;;;;3.72;1.60;;;;;12.80;95353.00;;;;8319356;28;20209;-79
2023/04/13 16:33:22;;;;;;;2.83;1.50;;;;;12.80;95355.00;;;;8322717;28;20251;-78
2023/04/13 16:37:26;;;;;;;4.20;1.60;;;;;12.70;95359.00;;;;8301686;28;20234;-78
2023/04/13 16:41:31;;;;;;;6.07;1.80;;;;;12.60;95356.00;;;;8333886;28;20189;-78
2023/04/13 16:45:39;;;;;;;4.32;1.80;;;;;12.60;95354.00;;;;8332753;28;20310;-78
2023/04/13 16:49:45;;;;;;;4.40;1.70;;;;;12.60;95358.00;;;;8342830;28;20208;-82
2023/04/13 16:53:52;;;;;;;2.15;1.60;;;;;12.40;95362.00;;;;8335944;28;20200;-78
2023/04/13 16:57:56;;;;;;;3.80;1.60;;;;;12.30;95362.00;;;;8343463;28;20318;-82
2023/04/13 17:02:02;;;;;;;2.45;1.63;;;;;12.20;95358.00;;;;8341696;28;20878;-82
2023/04/13 17:06:13;;;;;;;2.17;1.55;;;;;12.10;95356.00;;;;8332430;28;20325;-78
2023/04/13 17:10:17;;;;;;;4.32;1.90;;;;;11.90;95355.00;;;;8335591;28;20192;-72
2023/04/13 17:14:31;;;;;;;4.35;1.95;;;;;11.90;95367.00;;;;8334247;28;20195;-78
2023/04/13 17:18:34;;;;;;;4.85;1.80;;;;;11.80;95363.00;;;;8322125;28;20255;-76
2023/04/13 17:22:38;;;;;;;4.32;1.80;;;;;11.80;95360.00;;;;8318307;28;20236;-79
2023/04/13 17:26:42;;;;;;;1.98;1.80;;;;;11.70;95371.00;;;;8322080;28;20227;-77
2023/04/13 17:30:45;;;;;;;4.20;2.15;;;;;11.60;95386.00;;;;8321170;28;20193;-78
2023/04/13 17:34:48;;;;;;;6.75;1.67;;;;;11.60;95392.00;;;;8320558;28;20212;-77
2023/04/13 17:38:53;;;;;;;4.88;1.80;;;;;11.50;95388.00;;;;8320738;28;20212;-79
2023/04/13 17:42:58;;;;;;;4.88;1.63;;;;;11.40;95395.00;;;;8320578;28;20202;-76
2023/04/13 17:47:05;;;;;;;3.70;1.77;;;;;11.30;95391.00;;;;8319551;28;20227;-77
2023/04/13 17:51:10;;;;;;;3.70;1.52;;;;;11.10;95384.00;;;;8319952;28;20660;-77
2023/04/13 17:55:16;;;;;;;9.18;1.98;;;;;11.00;95384.00;;;;8319776;28;20266;-84
2023/04/13 17:59:22;;;;;;;2.10;1.90;;;;;10.80;95394.00;;;;8304201;28;20217;-83
2023/04/13 18:03:25;;;;;;;4.03;1.88;;;;;10.50;95395.00;;;;8320068;28;20236;-71
2023/04/13 18:07:30;;;;;;;5.57;2.00;;;;;10.40;95396.00;;;;8317531;28;20788;-83
2023/04/13 18:11:35;;;;;;;5.95;1.95;;;;;10.20;95390.00;;;;8310331;28;20662;-80
2023/04/13 18:15:49;;;;;;;7.82;2.83;;;;;10.00;95405.00;;;;8308649;28;20263;-77
2023/04/13 18:19:52;;;;;;;3.22;2.60;;;;;9.90;95404.00;;;;8306060;28;20202;-79
2023/04/13 18:23:58;;;;;;;5.13;2.70;;;;;9.90;95401.00;;;;8306381;28;20276;-73
2023/04/13 18:28:03;;;;;;;2.47;2.28;;;;;9.80;95395.00;;;;8318212;28;20229;-78
2023/04/13 18:32:08;;;;;;;6.25;2.70;;;;;9.80;95403.00;;;;8316453;28;20201;-79
2023/04/13 18:36:14;;;;;;;6.53;2.28;;;;;9.70;95389.00;;;;8314168;28;20201;-74
2023/04/13 18:40:18;;;;;;;5.20;2.13;;;;;9.70;95394.00;;;;8311518;28;20205;-77
2023/04/13 18:44:27;;;;;;;4.28;2.20;;;;;9.70;95401.00;;;;8292991;28;20265;-77
2023/04/13 18:48:35;;;;;;;2.72;1.95;;;;;9.70;95396.00;;;;8304062;28;20202;-75
2023/04/13 18:52:39;;;;;;;6.63;2.70;;;;;9.60;95400.00;;;;8312523;28;20562;-73
2023/04/13 18:56:42;;;;;;;4.95;2.47;;;;;9.60;95402.00;;;;8313136;28;20233;-74
2023/04/13 19:00:59;;;;;;;10.40;2.93;;;;;9.40;95399.00;;;;8314383;28;20647;-77
2023/04/13 19:05:04;;;;;;;7.05;2.80;;;;;9.30;95405.00;;;;8308312;28;20579;-78
2023/04/13 19:09:07;;;;;;;4.10;2.83;;;;;9.20;95396.00;;;;8315789;28;20201;-77
2023/04/13 19:13:15;;;;;;;7.53;3.42;;;;;9.10;95410.00;;;;8314699;28;20205;-76
2023/04/13 19:17:25;;;;;;;4.35;2.17;;;;;8.90;95396.00;;;;8300953;28;20774;-76
2023/04/13 19:21:29;;;;;;;4.13;2.63;;;;;8.80;95398.00;;;;8304046;28;21040;-74
2023/04/13 19:25:34;;;;;;;7.33;2.70;;;;;8.70;95405.00;;;;8311427;28;20283;-76
2023/04/13 19:29:40;;;;;;;2.80;2.50;;;;;8.70;95405.00;;;;8311509;28;20197;-75
2023/04/13 19:33:45;;;;;;;7.80;2.67;;;;;8.60;95401.00;;;;8313591;28;20243;-72
2023/04/13 19:37:53;;;;;;;4.63;2.20;;;;;8.60;95404.00;;;;8314791;28;20213;-74
2023/04/13 19:41:59;;;;;;;9.10;2.40;;;;;8.60;95400.00;;;;8299458;28;20197;-76
2023/04/13 19:46:06;;;;;;;3.90;2.30;;;;;8.70;95390.00;;;;8311197;28;20225;-73
2023/04/13 19:50:13;;;;;;;4.97;2.53;;;;;8.70;95396.00;;;;8315130;28;20296;-76
2023/04/13 19:54:17;;;;;;;9.52;2.58;;;;;8.70;95394.00;;;;8296322;28;20201;-70
2023/04/13 19:58:26;;;;;;;5.25;2.50;;;;;8.70;95402.00;;;;8316254;28;20284;-77
2023/04/13 20:02:31;;;;;;;3.00;2.43;;;;;8.70;95404.00;;;;8303711;28;20236;-73
2023/04/13 20:06:36;;;;;;;4.50;2.30;;;;;8.80;95404.00;;;;8320751;28;20229;-78
2023/04/13 20:10:39;;;;;;;4.77;2.60;;;;;8.80;95419.00;;;;8311363;28;20194;-75
2023/04/13 20:14:45;;;;;;;4.07;2.60;;;;;8.80;95417.00;;;;8310346;28;20243;-73
2023/04/13 20:18:51;;;;;;;5.63;2.83;;;;;8.80;95413.00;;;;8313885;28;20251;-74
2023/04/13 20:22:58;;;;;;;3.03;2.73;;;;;8.90;95403.00;;;;8314492;28;20659;-78
2023/04/13 20:27:02;;;;;;;5.83;2.63;;;;;8.90;95391.00;;;;8310195;28;20233;-78
2023/04/13 20:31:05;;;;;;;4.88;2.63;;;;;8.90;95387.00;;;;8307178;28;20629;-76
2023/04/13 20:35:09;;;;;;;4.20;3.15;;;;;8.90;95387.00;;;;8295661;28;20192;-76
2023/04/13 20:39:20;;;;;;;7.50;3.50;;;;;8.90;95390.00;;;;8314716;28;20639;-76
2023/04/13 20:43:24;;;;;;;6.93;3.50;;;;;8.90;95368.00;;;;8316961;28;20198;-71
2023/04/13 20:47:30;;;;;;;7.10;3.30;;;;;8.90;95370.00;;;;8319780;28;20944;-74